createdAt,value
2023-05-07T00:00:04.200Z,67.30
2023-05-07T00:02:04.409Z,67.20
2023-05-07T00:03:04.211Z,68.00
2023-05-07T00:04:07.130Z,67.20
2023-05-07T00:05:06.620Z,66.40
2023-05-07T00:07:03.902Z,67.00
2023-05-07T00:08:06.022Z,67.80
2023-05-07T00:10:04.583Z,67.60
2023-05-07T00:11:06.181Z,67.70
2023-05-07T00:13:04.280Z,67.70
2023-05-07T00:14:03.923Z,67.50
2023-05-07T00:15:03.517Z,67.60
2023-05-07T00:16:04.268Z,67.70
2023-05-07T00:17:03.949Z,67.60
2023-05-07T00:19:04.138Z,67.90
2023-05-07T00:20:06.323Z,68.50
2023-05-07T00:22:06.058Z,67.90
2023-05-07T00:23:08.756Z,68.30
2023-05-07T00:24:04.162Z,67.80
2023-05-07T00:26:04.463Z,67.70
2023-05-07T00:27:06.604Z,67.90
2023-05-07T00:29:03.625Z,67.70
2023-05-07T00:30:04.208Z,67.40
2023-05-07T00:31:11.487Z,67.40
2023-05-07T00:33:06.301Z,67.10
2023-05-07T00:34:03.875Z,66.90
2023-05-07T00:35:03.535Z,67.40
2023-05-07T00:36:09.326Z,67.60
2023-05-07T00:38:04.198Z,66.70
2023-05-07T00:40:05.983Z,67.60
2023-05-07T00:42:09.137Z,67.40
2023-05-07T00:43:03.628Z,66.80
2023-05-07T00:44:04.216Z,67.80
2023-05-07T00:45:08.936Z,67.90
2023-05-07T00:46:04.498Z,67.60
2023-05-07T00:47:04.092Z,66.80
2023-05-07T00:49:06.850Z,68.40
2023-05-07T00:51:09.145Z,67.80
2023-05-07T00:52:03.609Z,67.90
2023-05-07T00:53:04.239Z,68.20
2023-05-07T00:54:06.393Z,68.20
2023-05-07T00:56:04.326Z,67.60
2023-05-07T00:57:11.516Z,66.20
2023-05-07T01:00:04.377Z,66.90
2023-05-07T01:01:04.005Z,67.00
2023-05-07T01:02:03.581Z,68.50
2023-05-07T01:03:04.057Z,67.70
2023-05-07T01:04:09.366Z,68.70
2023-05-07T01:06:04.240Z,67.60
2023-05-07T01:07:04.079Z,68.10
2023-05-07T01:09:04.472Z,67.70
2023-05-07T01:10:04.040Z,67.80
2023-05-07T01:12:04.330Z,68.50
2023-05-07T01:13:04.378Z,68.60
2023-05-07T01:14:06.549Z,68.10
2023-05-07T01:16:03.619Z,66.60
2023-05-07T01:17:04.426Z,68.00
2023-05-07T01:18:04.126Z,68.30
2023-05-07T01:19:06.281Z,68.70
2023-05-07T01:21:06.812Z,68.30
2023-05-07T01:22:04.306Z,67.90
2023-05-07T01:23:07.729Z,68.00
2023-05-07T01:24:04.259Z,67.50
2023-05-07T01:25:06.470Z,67.40
2023-05-07T01:26:03.946Z,67.10
2023-05-07T01:28:04.207Z,67.80
2023-05-07T01:29:06.324Z,67.60
2023-05-07T01:31:04.516Z,68.10
2023-05-07T01:34:06.879Z,67.20
2023-05-07T01:35:06.905Z,66.90
2023-05-07T01:36:04.407Z,66.80
2023-05-07T01:37:04.054Z,67.90
2023-05-07T01:39:04.361Z,66.30
2023-05-07T01:40:09.550Z,67.40
2023-05-07T01:42:04.256Z,66.90
2023-05-07T01:44:06.049Z,67.40
2023-05-07T01:46:04.155Z,66.50
2023-05-07T01:47:03.775Z,65.60
2023-05-07T01:48:04.528Z,65.60
2023-05-07T01:49:04.171Z,67.30
2023-05-07T01:50:03.795Z,66.80
2023-05-07T01:51:03.663Z,67.60
2023-05-07T01:52:06.821Z,67.20
2023-05-07T01:54:06.761Z,67.40
2023-05-07T01:56:09.493Z,67.00
2023-05-07T01:58:03.569Z,67.50
2023-05-07T01:59:04.146Z,66.80
2023-05-07T02:00:06.246Z,67.70
2023-05-07T02:02:07.049Z,66.80
2023-05-07T02:03:03.692Z,67.20
2023-05-07T02:04:07.128Z,67.40
2023-05-07T02:05:03.613Z,67.40
2023-05-07T02:06:04.262Z,66.60
2023-05-07T02:07:06.385Z,67.00
2023-05-07T02:08:03.865Z,66.20
2023-05-07T02:10:06.538Z,66.80
2023-05-07T02:12:03.537Z,66.10
2023-05-07T02:13:06.770Z,67.40
2023-05-07T02:14:06.867Z,67.80
2023-05-07T02:16:03.883Z,67.50
2023-05-07T02:17:08.632Z,66.20
2023-05-07T02:18:04.171Z,65.80
2023-05-07T02:19:06.315Z,66.00
2023-05-07T02:20:06.268Z,67.60
2023-05-07T02:22:06.720Z,67.60
2023-05-07T02:23:04.287Z,67.20
2023-05-07T02:24:03.928Z,67.20
2023-05-07T02:26:06.641Z,67.30
2023-05-07T02:28:03.771Z,67.60
2023-05-07T02:29:04.413Z,67.80
2023-05-07T02:30:04.004Z,67.50
2023-05-07T02:31:06.106Z,67.40
2023-05-07T02:33:04.254Z,67.20
2023-05-07T02:34:06.433Z,67.00
2023-05-07T02:37:06.852Z,68.00
2023-05-07T02:38:06.943Z,66.40
2023-05-07T02:39:06.953Z,65.90
2023-05-07T02:41:03.961Z,65.90
2023-05-07T02:42:03.534Z,66.10
2023-05-07T02:43:04.193Z,66.60
2023-05-07T02:44:06.684Z,66.00
2023-05-07T02:45:04.094Z,65.70
2023-05-07T02:47:04.381Z,66.40
2023-05-07T02:48:06.530Z,66.80
2023-05-07T02:50:03.669Z,66.20
2023-05-07T02:51:04.332Z,65.70
2023-05-07T02:52:03.895Z,66.60
2023-05-07T02:53:04.501Z,66.20
2023-05-07T02:54:06.914Z,66.40
2023-05-07T02:55:04.475Z,66.30
2023-05-07T02:56:06.718Z,67.10
2023-05-07T02:57:04.160Z,66.90
2023-05-07T02:58:03.669Z,67.20
2023-05-07T02:59:04.303Z,67.20
2023-05-07T03:00:09.184Z,67.10
2023-05-07T03:02:06.316Z,67.60
2023-05-07T03:04:04.561Z,67.60
2023-05-07T03:05:04.088Z,67.40
2023-05-07T03:06:06.307Z,67.60
2023-05-07T03:07:03.834Z,67.70
2023-05-07T03:08:04.034Z,67.80
2023-05-07T03:09:04.262Z,67.70
2023-05-07T03:10:03.739Z,67.70
2023-05-07T03:11:06.921Z,67.70
2023-05-07T03:12:04.380Z,68.10
2023-05-07T03:13:06.781Z,67.80
2023-05-07T03:15:04.031Z,68.30
2023-05-07T03:16:06.482Z,67.70
2023-05-07T03:17:06.630Z,67.20
2023-05-07T03:18:06.812Z,68.40
2023-05-07T03:20:04.216Z,68.40
2023-05-07T03:21:06.400Z,67.00
2023-05-07T03:22:06.406Z,68.30
2023-05-07T03:23:12.910Z,66.60
2023-05-07T03:24:04.376Z,66.70
2023-05-07T03:25:06.464Z,67.00
2023-05-07T03:26:06.581Z,66.90
2023-05-07T03:27:04.035Z,66.70
2023-05-07T03:28:06.169Z,67.20
2023-05-07T03:30:04.237Z,66.90
2023-05-07T03:32:03.446Z,66.70
2023-05-07T03:33:04.202Z,67.90
2023-05-07T03:34:06.335Z,68.10
2023-05-07T03:35:08.978Z,67.60
2023-05-07T03:36:06.028Z,68.20
2023-05-07T03:37:06.077Z,67.90
2023-05-07T03:38:06.135Z,67.50
2023-05-07T03:40:04.378Z,68.50
2023-05-07T03:41:03.953Z,68.90
2023-05-07T03:42:03.656Z,68.40
2023-05-07T03:43:04.248Z,68.30
2023-05-07T03:44:03.847Z,68.20
2023-05-07T03:45:04.565Z,68.40
2023-05-07T03:46:07.002Z,68.00
2023-05-07T03:47:03.479Z,68.10
2023-05-07T03:48:04.175Z,67.40
2023-05-07T03:49:03.778Z,67.20
2023-05-07T03:50:04.495Z,68.60
2023-05-07T03:52:03.853Z,68.80
2023-05-07T03:53:03.533Z,68.70
2023-05-07T03:54:04.116Z,68.80
2023-05-07T03:55:03.622Z,68.90
2023-05-07T03:56:09.362Z,68.40
2023-05-07T03:58:03.879Z,68.10
2023-05-07T03:59:03.493Z,68.00
2023-05-07T04:00:04.196Z,68.00
2023-05-07T04:02:06.057Z,68.10
2023-05-07T04:04:04.646Z,68.10
2023-05-07T04:05:06.936Z,68.30
2023-05-07T04:06:08.580Z,68.20
2023-05-07T04:08:06.643Z,68.10
2023-05-07T04:09:06.679Z,68.20
2023-05-07T04:10:04.231Z,68.20
2023-05-07T04:11:04.126Z,68.50
2023-05-07T04:13:07.106Z,69.30
2023-05-07T04:14:06.226Z,68.80
2023-05-07T04:15:03.714Z,68.90
2023-05-07T04:16:04.445Z,68.90
2023-05-07T04:17:06.587Z,69.20
2023-05-07T04:19:06.256Z,69.40
2023-05-07T04:20:06.344Z,69.50
2023-05-07T04:22:06.104Z,69.10
2023-05-07T04:24:06.760Z,69.00
2023-05-07T04:25:07.395Z,69.40
2023-05-07T04:27:09.533Z,69.20
2023-05-07T04:29:03.918Z,69.40
2023-05-07T04:30:06.025Z,69.70
2023-05-07T04:32:09.501Z,69.70
2023-05-07T04:34:12.009Z,69.40
2023-05-07T04:36:03.702Z,69.60
2023-05-07T04:37:06.883Z,70.00
2023-05-07T04:39:03.681Z,70.30
2023-05-07T04:40:03.725Z,70.30
2023-05-07T04:41:06.939Z,70.20
2023-05-07T04:43:03.875Z,71.10
2023-05-07T04:44:03.892Z,70.50
2023-05-07T04:45:03.956Z,70.80
2023-05-07T04:46:06.405Z,70.70
2023-05-07T04:47:04.000Z,70.60
2023-05-07T04:48:04.130Z,70.90
2023-05-07T04:49:04.117Z,70.30
2023-05-07T04:50:03.856Z,70.50
2023-05-07T04:51:08.486Z,70.50
2023-05-07T04:53:04.063Z,70.30
2023-05-07T04:54:04.287Z,70.80
2023-05-07T04:55:06.549Z,71.10
2023-05-07T04:56:04.032Z,71.20
2023-05-07T04:57:04.461Z,70.20
2023-05-07T04:58:04.033Z,70.40
2023-05-07T04:59:03.680Z,71.40
2023-05-07T05:00:04.355Z,71.00
2023-05-07T05:01:06.568Z,71.20
2023-05-07T05:03:09.162Z,70.40
2023-05-07T05:05:03.612Z,71.30
2023-05-07T05:06:03.952Z,72.10
2023-05-07T05:07:06.418Z,72.40
2023-05-07T05:08:03.953Z,71.90
2023-05-07T05:09:03.983Z,70.80
2023-05-07T05:10:06.184Z,72.20
2023-05-07T05:12:04.534Z,71.80
2023-05-07T05:14:03.735Z,70.10
2023-05-07T05:15:06.938Z,71.80
2023-05-07T05:16:07.192Z,71.30
2023-05-07T05:17:03.888Z,71.30
2023-05-07T05:18:06.832Z,71.60
2023-05-07T05:19:09.574Z,71.60
2023-05-07T05:20:04.076Z,70.40
2023-05-07T05:21:11.283Z,71.30
2023-05-07T05:23:03.749Z,71.40
2023-05-07T05:24:04.476Z,72.20
2023-05-07T05:25:06.582Z,70.60
2023-05-07T05:26:04.155Z,71.40
2023-05-07T05:27:03.911Z,70.20
2023-05-07T05:28:06.119Z,70.20
2023-05-07T05:30:09.587Z,69.70
2023-05-07T05:31:04.274Z,69.60
2023-05-07T05:32:06.518Z,69.90
2023-05-07T05:33:04.154Z,70.00
2023-05-07T05:34:03.836Z,69.80
2023-05-07T05:35:06.983Z,70.00
2023-05-07T05:36:06.118Z,69.90
2023-05-07T05:37:06.308Z,69.90
2023-05-07T05:38:03.774Z,69.80
2023-05-07T05:39:04.379Z,70.00
2023-05-07T05:40:06.557Z,69.80
2023-05-07T05:42:13.899Z,69.80
2023-05-07T05:43:04.367Z,69.80
2023-05-07T05:44:04.068Z,70.00
2023-05-07T05:45:06.261Z,70.10
2023-05-07T05:46:03.883Z,70.10
2023-05-07T05:47:03.537Z,71.00
2023-05-07T05:48:04.406Z,70.00
2023-05-07T05:49:04.234Z,70.00
2023-05-07T05:50:06.746Z,70.40
2023-05-07T05:53:06.365Z,70.30
2023-05-07T05:54:06.400Z,70.10
2023-05-07T05:55:06.457Z,70.20
2023-05-07T05:56:03.925Z,70.60
2023-05-07T05:57:03.615Z,71.80
2023-05-07T05:58:06.838Z,72.00
2023-05-07T06:00:04.100Z,70.70
2023-05-07T06:01:03.708Z,70.60
2023-05-07T06:02:09.549Z,70.60
2023-05-07T06:03:04.086Z,70.90
2023-05-07T06:04:03.785Z,70.20
2023-05-07T06:05:04.479Z,70.60
2023-05-07T06:06:04.063Z,70.00
2023-05-07T06:07:03.799Z,70.80
2023-05-07T06:08:12.078Z,71.00
2023-05-07T06:09:03.657Z,70.80
2023-05-07T06:10:04.228Z,70.70
2023-05-07T06:12:03.576Z,69.90
2023-05-07T06:13:04.419Z,70.00
2023-05-07T06:14:06.596Z,70.00
2023-05-07T06:16:03.626Z,70.80
2023-05-07T06:17:07.031Z,70.00
2023-05-07T06:18:03.719Z,70.00
2023-05-07T06:19:04.402Z,70.10
2023-05-07T06:20:04.006Z,70.60
2023-05-07T06:22:06.858Z,71.40
2023-05-07T06:23:06.886Z,70.70
2023-05-07T06:24:04.324Z,70.60
2023-05-07T06:25:04.049Z,70.50
2023-05-07T06:27:06.852Z,70.30
2023-05-07T06:29:04.109Z,70.30
2023-05-07T06:30:03.685Z,70.10
2023-05-07T06:31:06.861Z,70.00
2023-05-07T06:32:07.227Z,69.90
2023-05-07T06:33:03.950Z,69.80
2023-05-07T06:34:03.819Z,70.80
2023-05-07T06:35:04.437Z,70.10
2023-05-07T06:37:03.645Z,70.00
2023-05-07T06:38:09.280Z,70.30
2023-05-07T06:39:06.246Z,70.30
2023-05-07T06:41:06.862Z,70.20
2023-05-07T06:42:12.133Z,70.10
2023-05-07T06:44:04.518Z,70.20
2023-05-07T06:45:06.952Z,70.00
2023-05-07T06:46:07.083Z,70.00
2023-05-07T06:47:03.743Z,70.00
2023-05-07T06:48:03.914Z,70.10
2023-05-07T06:49:03.525Z,70.10
2023-05-07T06:50:09.696Z,69.90
2023-05-07T06:51:04.357Z,70.00
2023-05-07T06:52:03.800Z,70.30
2023-05-07T06:53:07.046Z,69.80
2023-05-07T06:55:06.743Z,69.40
2023-05-07T06:56:06.676Z,70.30
2023-05-07T06:57:04.252Z,70.30
2023-05-07T06:58:03.813Z,69.60
2023-05-07T06:59:06.891Z,69.90
2023-05-07T07:01:04.036Z,70.00
2023-05-07T07:02:04.436Z,70.20
2023-05-07T07:03:03.665Z,70.10
2023-05-07T07:04:04.413Z,70.20
2023-05-07T07:05:04.112Z,70.20
2023-05-07T07:06:06.853Z,70.00
2023-05-07T07:08:04.071Z,70.20
2023-05-07T07:09:03.701Z,70.00
2023-05-07T07:10:04.281Z,70.20
2023-05-07T07:11:06.485Z,70.10
2023-05-07T07:12:03.974Z,70.30
2023-05-07T07:13:03.771Z,70.30
2023-05-07T07:15:03.986Z,69.90
2023-05-07T07:16:03.738Z,69.90
2023-05-07T07:17:04.423Z,70.10
2023-05-07T07:18:04.018Z,70.10
2023-05-07T07:19:03.707Z,70.10
2023-05-07T07:20:04.299Z,70.20
2023-05-07T07:21:03.904Z,70.10
2023-05-07T07:23:04.395Z,70.50
2023-05-07T07:24:04.078Z,70.40
2023-05-07T07:25:04.439Z,70.20
2023-05-07T07:26:06.842Z,69.40
2023-05-07T07:28:06.469Z,69.50
2023-05-07T07:29:06.541Z,70.10
2023-05-07T07:30:04.067Z,69.70
2023-05-07T07:31:03.666Z,69.80
2023-05-07T07:32:06.858Z,70.00
2023-05-07T07:33:07.114Z,69.60
2023-05-07T07:34:06.254Z,69.70
2023-05-07T07:35:06.210Z,70.10
2023-05-07T07:37:04.288Z,69.40
2023-05-07T07:38:03.951Z,69.00
2023-05-07T07:39:03.589Z,69.30
2023-05-07T07:40:04.156Z,69.20
2023-05-07T07:42:04.379Z,69.30
2023-05-07T07:43:06.478Z,69.20
2023-05-07T07:45:06.020Z,69.80
2023-05-07T07:46:03.502Z,70.00
2023-05-07T07:47:04.475Z,69.30
2023-05-07T07:48:06.490Z,69.30
2023-05-07T07:50:04.026Z,69.10
2023-05-07T07:51:06.329Z,68.90
2023-05-07T07:52:06.409Z,68.60
2023-05-07T07:53:06.439Z,68.30
2023-05-07T07:54:06.484Z,67.90
2023-05-07T07:55:06.509Z,68.50
2023-05-07T07:58:04.394Z,68.10
2023-05-07T07:59:06.610Z,67.90
2023-05-07T08:00:09.558Z,67.60
2023-05-07T08:02:03.923Z,68.00
2023-05-07T08:03:03.706Z,67.90
2023-05-07T08:04:04.804Z,67.60
2023-05-07T08:05:06.965Z,67.20
2023-05-07T08:06:08.605Z,67.40
2023-05-07T08:08:08.906Z,67.30
2023-05-07T08:11:03.766Z,67.20
2023-05-07T08:12:06.985Z,66.50
2023-05-07T08:14:03.696Z,66.70
2023-05-07T08:15:04.374Z,66.70
2023-05-07T08:16:03.967Z,66.70
2023-05-07T08:17:03.799Z,66.90
2023-05-07T08:19:04.413Z,66.90
2023-05-07T08:21:06.300Z,66.60
2023-05-07T08:22:03.722Z,66.20
2023-05-07T08:23:04.395Z,67.20
2023-05-07T08:24:04.050Z,66.40
2023-05-07T08:25:03.776Z,66.20
2023-05-07T08:26:04.397Z,66.30
2023-05-07T08:27:04.012Z,66.10
2023-05-07T08:29:06.840Z,65.30
2023-05-07T08:30:04.304Z,65.40
2023-05-07T08:31:04.062Z,65.90
2023-05-07T08:32:11.550Z,65.60
2023-05-07T08:34:09.911Z,65.60
2023-05-07T08:36:04.302Z,65.80
2023-05-07T08:37:04.998Z,66.10
2023-05-07T08:38:06.169Z,66.20
2023-05-07T08:39:06.233Z,66.10
2023-05-07T08:40:03.918Z,66.10
2023-05-07T08:41:03.929Z,66.30
2023-05-07T08:42:06.213Z,66.30
2023-05-07T08:44:04.430Z,65.80
2023-05-07T08:45:04.113Z,66.00
2023-05-07T08:46:10.789Z,65.60
2023-05-07T08:49:03.651Z,65.00
2023-05-07T08:50:06.900Z,65.30
2023-05-07T08:52:04.446Z,66.00
2023-05-07T08:54:04.012Z,65.20
2023-05-07T08:55:03.726Z,65.00
2023-05-07T08:56:04.381Z,65.30
2023-05-07T08:57:06.468Z,65.70
2023-05-07T08:59:06.054Z,65.90
2023-05-07T09:01:04.310Z,65.30
2023-05-07T09:03:03.989Z,65.10
2023-05-07T09:04:03.590Z,65.30
2023-05-07T09:05:04.251Z,64.60
2023-05-07T09:06:09.021Z,64.40
2023-05-07T09:08:04.071Z,64.10
2023-05-07T09:09:06.200Z,64.70
2023-05-07T09:11:04.221Z,64.50
2023-05-07T09:12:06.404Z,64.40
2023-05-07T09:13:06.514Z,64.10
2023-05-07T09:15:06.324Z,63.20
2023-05-07T09:17:04.541Z,62.70
2023-05-07T09:19:03.848Z,63.00
2023-05-07T09:20:11.189Z,62.20
2023-05-07T09:21:03.883Z,62.40
2023-05-07T09:22:11.163Z,62.10
2023-05-07T09:23:03.738Z,62.70
2023-05-07T09:24:06.987Z,61.60
2023-05-07T09:26:04.197Z,61.70
2023-05-07T09:27:04.023Z,61.80
2023-05-07T09:29:07.053Z,60.90
2023-05-07T09:30:06.223Z,60.50
2023-05-07T09:32:07.100Z,61.10
2023-05-07T09:33:06.846Z,60.20
2023-05-07T09:34:04.822Z,60.00
2023-05-07T09:35:04.460Z,60.40
2023-05-07T09:36:06.576Z,60.10
2023-05-07T09:37:04.124Z,60.00
2023-05-07T09:38:04.893Z,59.50
2023-05-07T09:40:06.791Z,59.20
2023-05-07T09:41:04.462Z,59.30
2023-05-07T09:42:06.647Z,59.20
2023-05-07T09:43:04.255Z,59.30
2023-05-07T09:44:09.989Z,59.40
2023-05-07T09:45:06.222Z,59.50
2023-05-07T09:47:06.808Z,59.30
2023-05-07T09:49:03.983Z,59.30
2023-05-07T09:50:11.246Z,58.80
2023-05-07T09:51:03.685Z,58.80
2023-05-07T09:52:07.022Z,58.90
2023-05-07T09:53:06.099Z,58.70
2023-05-07T09:54:06.117Z,59.20
2023-05-07T09:56:05.534Z,58.80
2023-05-07T09:57:04.166Z,58.60
2023-05-07T09:58:06.244Z,58.50
2023-05-07T09:59:03.823Z,58.60
2023-05-07T10:00:06.114Z,58.60
2023-05-07T10:01:03.703Z,58.70
2023-05-07T10:02:05.520Z,58.50
2023-05-07T10:04:06.276Z,58.60
2023-05-07T10:05:03.911Z,58.60
2023-05-07T10:06:06.263Z,58.20
2023-05-07T10:08:05.420Z,58.40
2023-05-07T10:09:04.177Z,57.90
2023-05-07T10:10:03.797Z,58.00
2023-05-07T10:11:04.379Z,58.00
2023-05-07T10:12:06.508Z,57.60
2023-05-07T10:14:05.401Z,57.30
2023-05-07T10:15:03.981Z,57.40
2023-05-07T10:16:06.245Z,57.60
2023-05-07T10:17:08.922Z,57.20
2023-05-07T10:19:06.960Z,57.50
2023-05-07T10:21:04.412Z,57.30
2023-05-07T10:22:04.166Z,57.20
2023-05-07T10:24:06.961Z,58.40
2023-05-07T10:25:09.325Z,58.50
2023-05-07T10:26:06.431Z,58.20
2023-05-07T10:27:06.430Z,58.20
2023-05-07T10:29:04.507Z,57.70
2023-05-07T10:30:09.206Z,57.60
2023-05-07T10:31:09.261Z,57.20
2023-05-07T10:33:03.953Z,57.00
2023-05-07T10:34:06.145Z,56.90
2023-05-07T10:35:08.823Z,57.20
2023-05-07T10:37:04.431Z,57.60
2023-05-07T10:38:04.146Z,57.70
2023-05-07T10:39:06.321Z,57.30
2023-05-07T10:41:06.066Z,56.80
2023-05-07T10:42:03.598Z,56.50
2023-05-07T10:43:11.195Z,57.30
2023-05-07T10:45:06.051Z,57.60
2023-05-07T10:46:03.587Z,56.90
2023-05-07T10:47:04.171Z,56.60
2023-05-07T10:48:27.780Z,56.70
2023-05-07T10:50:08.834Z,56.40
2023-05-07T10:51:04.383Z,57.00
2023-05-07T10:52:03.923Z,56.80
2023-05-07T10:53:06.051Z,56.70
2023-05-07T10:55:04.236Z,56.60
2023-05-07T10:56:03.833Z,56.30
2023-05-07T10:57:07.031Z,56.30
2023-05-07T10:58:06.031Z,56.20
2023-05-07T10:59:03.516Z,55.50
2023-05-07T11:00:06.742Z,55.80
2023-05-07T11:01:04.235Z,55.50
2023-05-07T11:02:04.160Z,55.10
2023-05-07T11:03:04.222Z,55.40
2023-05-07T11:04:03.842Z,55.70
2023-05-07T11:05:06.103Z,55.00
2023-05-07T11:07:03.911Z,55.00
2023-05-07T11:08:03.620Z,54.80
2023-05-07T11:09:06.813Z,54.90
2023-05-07T11:10:04.271Z,54.10
2023-05-07T11:11:09.023Z,54.20
2023-05-07T11:12:03.503Z,54.50
2023-05-07T11:13:04.333Z,54.20
2023-05-07T11:14:06.564Z,53.20
2023-05-07T11:16:04.538Z,53.70
2023-05-07T11:17:04.166Z,53.70
2023-05-07T11:19:04.361Z,53.10
2023-05-07T11:20:06.614Z,52.90
2023-05-07T11:21:04.146Z,53.30
2023-05-07T11:22:03.801Z,53.10
2023-05-07T11:23:04.433Z,53.20
2023-05-07T11:24:06.828Z,53.30
2023-05-07T11:26:06.352Z,52.80
2023-05-07T11:28:03.479Z,52.70
2023-05-07T11:29:04.091Z,53.10
2023-05-07T11:30:06.264Z,53.20
2023-05-07T11:32:04.577Z,53.20
2023-05-07T11:33:04.497Z,52.90
2023-05-07T11:34:04.103Z,53.00
2023-05-07T11:35:03.652Z,53.10
2023-05-07T11:36:04.274Z,52.90
2023-05-07T11:37:03.885Z,52.90
2023-05-07T11:38:03.519Z,52.70
2023-05-07T11:39:04.122Z,52.30
2023-05-07T11:40:06.301Z,52.80
2023-05-07T11:42:03.569Z,52.30
2023-05-07T11:43:04.290Z,52.10
2023-05-07T11:44:09.174Z,51.90
2023-05-07T11:45:06.190Z,50.50
2023-05-07T11:46:09.029Z,50.90
2023-05-07T11:48:03.796Z,51.40
2023-05-07T11:49:06.925Z,51.30
2023-05-07T11:50:07.072Z,51.00
2023-05-07T11:51:03.573Z,50.90
2023-05-07T11:52:06.990Z,51.20
2023-05-07T11:53:06.198Z,50.90
2023-05-07T11:54:06.265Z,50.50
2023-05-07T11:55:06.374Z,50.60
2023-05-07T11:57:06.016Z,50.70
2023-05-07T11:59:09.297Z,50.50
2023-05-07T12:00:03.792Z,50.80
2023-05-07T12:01:07.059Z,51.00
2023-05-07T12:02:06.373Z,50.30
2023-05-07T12:04:03.941Z,50.20
2023-05-07T12:05:03.662Z,49.80
2023-05-07T12:06:04.281Z,50.60
2023-05-07T12:07:06.395Z,49.60
2023-05-07T12:08:06.531Z,51.00
2023-05-07T12:09:09.009Z,50.10
2023-05-07T12:10:04.434Z,50.30
2023-05-07T12:11:03.902Z,49.90
2023-05-07T12:12:06.075Z,50.30
2023-05-07T12:13:06.258Z,49.50
2023-05-07T12:15:06.832Z,49.80
2023-05-07T12:16:04.268Z,50.10
2023-05-07T12:17:06.682Z,48.80
2023-05-07T12:18:06.783Z,48.80
2023-05-07T12:19:06.923Z,48.70
2023-05-07T12:21:06.589Z,48.90
2023-05-07T12:22:04.120Z,48.60
2023-05-07T12:23:03.761Z,48.40
2023-05-07T12:24:04.357Z,48.10
2023-05-07T12:25:04.117Z,48.70
2023-05-07T12:26:07.731Z,48.60
2023-05-07T12:28:04.063Z,48.60
2023-05-07T12:29:08.780Z,49.00
2023-05-07T12:30:04.250Z,48.90
2023-05-07T12:31:06.547Z,49.00
2023-05-07T12:32:07.313Z,48.70
2023-05-07T12:33:04.135Z,48.90
2023-05-07T12:34:03.694Z,48.70
2023-05-07T12:35:06.815Z,49.10
2023-05-07T12:36:04.341Z,49.20
2023-05-07T12:37:06.522Z,48.30
2023-05-07T12:39:06.201Z,48.20
2023-05-07T12:40:06.179Z,48.20
2023-05-07T12:41:08.796Z,48.40
2023-05-07T12:44:03.735Z,47.90
2023-05-07T12:45:04.302Z,49.00
2023-05-07T12:47:04.069Z,48.40
2023-05-07T12:49:04.302Z,47.50
2023-05-07T12:50:06.372Z,47.70
2023-05-07T12:51:06.362Z,47.70
2023-05-07T12:53:04.427Z,48.50
2023-05-07T12:54:06.547Z,48.60
2023-05-07T12:56:03.590Z,48.60
2023-05-07T12:57:04.221Z,48.20
2023-05-07T12:58:03.976Z,48.40
2023-05-07T12:59:03.718Z,48.30
2023-05-07T13:00:07.047Z,48.70
2023-05-07T13:01:06.048Z,49.00
2023-05-07T13:02:03.745Z,49.30
2023-05-07T13:03:06.414Z,49.20
2023-05-07T13:05:06.321Z,48.20
2023-05-07T13:06:03.836Z,48.20
2023-05-07T13:07:04.474Z,52.10
2023-05-07T13:08:06.661Z,52.10
2023-05-07T13:09:06.652Z,51.70
2023-05-07T13:10:06.792Z,52.10
2023-05-07T13:11:06.852Z,52.00
2023-05-07T13:13:06.308Z,53.00
2023-05-07T13:14:06.309Z,50.80
2023-05-07T13:15:06.307Z,49.90
2023-05-07T13:16:03.866Z,48.70
2023-05-07T13:17:04.534Z,48.40
2023-05-07T13:18:06.926Z,49.20
2023-05-07T13:19:03.536Z,47.50
2023-05-07T13:20:06.697Z,47.20
2023-05-07T13:22:06.392Z,53.90
2023-05-07T13:24:04.460Z,50.10
2023-05-07T13:25:04.003Z,49.80
2023-05-07T13:26:25.321Z,50.50
2023-05-07T13:28:11.855Z,48.90
2023-05-07T13:30:03.511Z,47.30
2023-05-07T13:31:06.720Z,47.80
2023-05-07T13:32:06.862Z,46.90
2023-05-07T13:34:09.040Z,45.40
2023-05-07T13:35:06.062Z,44.90
2023-05-07T13:37:06.780Z,45.60
2023-05-07T13:38:04.294Z,45.30
2023-05-07T13:39:09.139Z,46.00
2023-05-07T13:41:03.990Z,46.80
2023-05-07T13:42:06.350Z,46.40
2023-05-07T13:43:06.407Z,47.30
2023-05-07T13:44:06.487Z,48.20
2023-05-07T13:45:11.526Z,47.40
2023-05-07T13:47:04.125Z,47.10
2023-05-07T13:49:04.433Z,48.50
2023-05-07T13:50:03.980Z,47.10
2023-05-07T13:51:06.137Z,45.50
2023-05-07T13:52:06.159Z,45.80
2023-05-07T13:54:04.218Z,46.90
2023-05-07T13:55:03.738Z,46.40
2023-05-07T13:56:04.408Z,45.20
2023-05-07T13:57:03.968Z,46.80
2023-05-07T13:58:07.846Z,46.90
2023-05-07T14:00:04.177Z,46.60
2023-05-07T14:01:03.876Z,45.90
2023-05-07T14:03:04.369Z,46.50
2023-05-07T14:04:04.047Z,47.80
2023-05-07T14:06:04.476Z,45.70
2023-05-07T14:07:04.516Z,48.00
2023-05-07T14:08:06.544Z,46.80
2023-05-07T14:09:09.072Z,47.10
2023-05-07T14:10:03.542Z,47.30
2023-05-07T14:11:04.159Z,45.80
2023-05-07T14:12:06.331Z,46.40
2023-05-07T14:13:09.014Z,46.50
2023-05-07T14:14:06.101Z,44.90
2023-05-07T14:16:04.077Z,46.10
2023-05-07T14:17:03.889Z,45.40
2023-05-07T14:18:06.268Z,47.10
2023-05-07T14:19:03.808Z,47.30
2023-05-07T14:20:06.913Z,45.10
2023-05-07T14:21:07.154Z,44.80
2023-05-07T14:22:08.783Z,44.70
2023-05-07T14:23:04.237Z,44.60
2023-05-07T14:24:06.374Z,44.90
2023-05-07T14:25:08.857Z,47.20
2023-05-07T14:27:03.602Z,45.90
2023-05-07T14:28:09.146Z,46.70
2023-05-07T14:29:06.161Z,46.70
2023-05-07T14:30:03.753Z,46.80
2023-05-07T14:31:04.458Z,46.20
2023-05-07T14:32:14.246Z,44.70
2023-05-07T14:34:03.724Z,45.60
2023-05-07T14:35:04.372Z,44.60
2023-05-07T14:36:04.144Z,46.50
2023-05-07T14:37:06.319Z,46.20
2023-05-07T14:38:08.766Z,46.40
2023-05-07T14:39:04.297Z,46.30
2023-05-07T14:40:04.115Z,46.20
2023-05-07T14:41:03.722Z,44.30
2023-05-07T14:42:04.352Z,44.10
2023-05-07T14:43:09.213Z,43.70
2023-05-07T14:44:06.265Z,43.30
2023-05-07T14:46:04.461Z,44.90
2023-05-07T14:47:06.645Z,44.00
2023-05-07T14:50:03.933Z,44.00
2023-05-07T14:51:03.510Z,43.00
2023-05-07T14:52:06.761Z,42.70
2023-05-07T14:53:04.272Z,42.80
2023-05-07T14:54:06.297Z,44.80
2023-05-07T14:56:04.434Z,44.70
2023-05-07T14:57:04.206Z,44.50
2023-05-07T14:59:07.304Z,44.80
2023-05-07T15:00:11.510Z,45.20
2023-05-07T15:02:07.463Z,44.90
2023-05-07T15:03:04.276Z,45.70
2023-05-07T15:04:04.302Z,46.40
2023-05-07T15:05:03.869Z,45.80
2023-05-07T15:07:04.116Z,47.40
2023-05-07T15:08:03.673Z,46.90
2023-05-07T15:09:09.419Z,46.50
2023-05-07T15:10:03.904Z,46.30
2023-05-07T15:11:03.584Z,46.70
2023-05-07T15:12:06.653Z,49.60
2023-05-07T15:13:06.712Z,47.00
2023-05-07T15:14:06.743Z,46.60
2023-05-07T15:16:03.915Z,46.80
2023-05-07T15:17:03.720Z,46.80
2023-05-07T15:18:07.039Z,47.10
2023-05-07T15:19:06.185Z,47.30
2023-05-07T15:20:06.303Z,46.90
2023-05-07T15:21:03.848Z,46.80
2023-05-07T15:22:03.632Z,47.20
2023-05-07T15:23:04.272Z,47.20
2023-05-07T15:24:03.998Z,46.60
2023-05-07T15:25:06.173Z,47.10
2023-05-07T15:27:04.261Z,47.20
2023-05-07T15:28:03.784Z,47.30
2023-05-07T15:29:06.944Z,47.70
2023-05-07T15:31:06.778Z,47.80
2023-05-07T15:33:04.216Z,47.70
2023-05-07T15:34:03.833Z,47.20
2023-05-07T15:36:04.395Z,47.60
2023-05-07T15:37:04.026Z,47.30
2023-05-07T15:38:06.777Z,47.50
2023-05-07T15:40:04.128Z,47.80
2023-05-07T15:41:06.436Z,47.80
2023-05-07T15:42:06.528Z,48.20
2023-05-07T15:44:03.802Z,48.20
2023-05-07T15:45:04.042Z,48.50
2023-05-07T15:46:06.147Z,49.00
2023-05-07T15:47:06.173Z,48.50
2023-05-07T15:48:03.801Z,48.80
2023-05-07T15:49:03.616Z,47.70
2023-05-07T15:50:04.438Z,47.40
2023-05-07T15:52:03.980Z,47.90
2023-05-07T15:53:03.606Z,48.20
2023-05-07T15:54:04.252Z,47.60
2023-05-07T15:55:06.382Z,48.20
2023-05-07T15:56:06.640Z,48.30
2023-05-07T15:58:11.240Z,48.50
2023-05-07T16:00:12.156Z,47.80
2023-05-07T16:02:06.201Z,49.40
2023-05-07T16:03:06.552Z,48.10
2023-05-07T16:05:04.700Z,48.50
2023-05-07T16:07:12.530Z,48.50
2023-05-07T16:09:09.103Z,48.80
2023-05-07T16:10:03.596Z,49.10
2023-05-07T16:11:04.266Z,49.40
2023-05-07T16:12:03.812Z,49.50
2023-05-07T16:13:07.038Z,50.00
2023-05-07T16:14:06.142Z,50.30
2023-05-07T16:15:08.778Z,49.00